sensor_id;sensor_type;location;lat;lon;timestamp;temperature;humidity
17632;DHT22;8934;51.194;17.150;2023-04-19T00:02:44;10.00;99.90
17632;DHT22;8934;51.194;17.150;2023-04-19T00:05:34;10.00;99.90
17632;DHT22;8934;51.194;17.150;2023-04-19T00:08:23;9.90;99.90
17632;DHT22;8934;51.194;17.150;2023-04-19T00:11:11;9.90;99.90
17632;DHT22;8934;51.194;17.150;2023-04-19T00:13:59;9.90;99.90
17632;DHT22;8934;51.194;17.150;2023-04-19T00:16:48;9.80;99.90
17632;DHT22;8934;51.194;17.150;2023-04-19T00:19:36;9.80;99.90
17632;DHT22;8934;51.194;17.150;2023-04-19T00:22:23;9.70;99.90
17632;DHT22;8934;51.194;17.150;2023-04-19T00:25:11;9.70;99.90
17632;DHT22;8934;51.194;17.150;2023-04-19T00:27:59;9.70;99.90
17632;DHT22;8934;51.194;17.150;2023-04-19T00:30:46;9.60;99.90
17632;DHT22;8934;51.194;17.150;2023-04-19T00:33:35;9.60;99.90
17632;DHT22;8934;51.194;17.150;2023-04-19T00:36:22;9.60;99.90
17632;DHT22;8934;51.194;17.150;2023-04-19T00:39:11;9.50;99.90
17632;DHT22;8934;51.194;17.150;2023-04-19T00:41:59;9.50;99.90
17632;DHT22;8934;51.194;17.150;2023-04-19T00:44:47;9.40;99.90
17632;DHT22;8934;51.194;17.150;2023-04-19T00:47:35;9.40;99.90
17632;DHT22;8934;51.194;17.150;2023-04-19T00:50:25;9.30;99.90
17632;DHT22;8934;51.194;17.150;2023-04-19T00:53:15;9.30;99.90
17632;DHT22;8934;51.194;17.150;2023-04-19T00:56:04;9.30;99.90
17632;DHT22;8934;51.194;17.150;2023-04-19T00:58:53;9.20;99.90
17632;DHT22;8934;51.194;17.150;2023-04-19T01:01:40;9.20;99.90
17632;DHT22;8934;51.194;17.150;2023-04-19T01:04:28;9.10;99.90
17632;DHT22;8934;51.194;17.150;2023-04-19T01:07:18;9.10;99.90
17632;DHT22;8934;51.194;17.150;2023-04-19T01:10:06;9.00;99.90
17632;DHT22;8934;51.194;17.150;2023-04-19T01:12:54;9.00;99.90
17632;DHT22;8934;51.194;17.150;2023-04-19T01:15:42;9.00;99.90
17632;DHT22;8934;51.194;17.150;2023-04-19T01:18:30;8.90;99.90
17632;DHT22;8934;51.194;17.150;2023-04-19T01:21:23;8.90;99.90
17632;DHT22;8934;51.194;17.150;2023-04-19T01:24:12;8.90;99.90
17632;DHT22;8934;51.194;17.150;2023-04-19T01:27:00;8.90;99.90
17632;DHT22;8934;51.194;17.150;2023-04-19T01:29:48;8.80;99.90
17632;DHT22;8934;51.194;17.150;2023-04-19T01:32:36;8.80;99.90
17632;DHT22;8934;51.194;17.150;2023-04-19T01:35:24;8.80;99.90
17632;DHT22;8934;51.194;17.150;2023-04-19T01:38:11;8.70;99.90
17632;DHT22;8934;51.194;17.150;2023-04-19T01:41:01;8.70;99.90
17632;DHT22;8934;51.194;17.150;2023-04-19T01:43:50;8.70;99.90
17632;DHT22;8934;51.194;17.150;2023-04-19T01:46:37;8.60;99.90
17632;DHT22;8934;51.194;17.150;2023-04-19T01:49:27;8.60;99.90
17632;DHT22;8934;51.194;17.150;2023-04-19T01:52:15;8.60;99.90
17632;DHT22;8934;51.194;17.150;2023-04-19T01:55:03;8.50;99.90
17632;DHT22;8934;51.194;17.150;2023-04-19T01:57:52;8.60;99.90
17632;DHT22;8934;51.194;17.150;2023-04-19T02:00:41;8.60;99.90
17632;DHT22;8934;51.194;17.150;2023-04-19T02:03:28;8.50;99.90
17632;DHT22;8934;51.194;17.150;2023-04-19T02:06:17;8.50;99.90
17632;DHT22;8934;51.194;17.150;2023-04-19T02:09:06;8.40;99.90
17632;DHT22;8934;51.194;17.150;2023-04-19T02:11:54;8.30;99.90
17632;DHT22;8934;51.194;17.150;2023-04-19T02:14:43;8.20;99.90
17632;DHT22;8934;51.194;17.150;2023-04-19T02:17:30;8.20;99.90
17632;DHT22;8934;51.194;17.150;2023-04-19T02:20:18;8.20;99.90
17632;DHT22;8934;51.194;17.150;2023-04-19T02:23:07;8.10;99.90
17632;DHT22;8934;51.194;17.150;2023-04-19T02:25:55;8.10;99.90
17632;DHT22;8934;51.194;17.150;2023-04-19T02:28:42;8.00;99.90
17632;DHT22;8934;51.194;17.150;2023-04-19T02:31:32;7.90;99.90
17632;DHT22;8934;51.194;17.150;2023-04-19T02:34:20;7.90;99.90
17632;DHT22;8934;51.194;17.150;2023-04-19T02:37:08;7.80;99.90
17632;DHT22;8934;51.194;17.150;2023-04-19T02:39:55;7.80;99.90
17632;DHT22;8934;51.194;17.150;2023-04-19T02:42:43;7.80;99.90
17632;DHT22;8934;51.194;17.150;2023-04-19T02:45:30;7.80;99.90
17632;DHT22;8934;51.194;17.150;2023-04-19T02:48:19;7.70;99.90
17632;DHT22;8934;51.194;17.150;2023-04-19T02:51:07;7.70;99.90
17632;DHT22;8934;51.194;17.150;2023-04-19T02:53:57;7.70;99.90
17632;DHT22;8934;51.194;17.150;2023-04-19T02:56:44;7.60;99.90
17632;DHT22;8934;51.194;17.150;2023-04-19T02:59:34;7.60;99.90
17632;DHT22;8934;51.194;17.150;2023-04-19T03:02:23;7.60;99.90
17632;DHT22;8934;51.194;17.150;2023-04-19T03:05:12;7.50;99.90
17632;DHT22;8934;51.194;17.150;2023-04-19T03:08:00;7.50;99.90
17632;DHT22;8934;51.194;17.150;2023-04-19T03:10:48;7.40;99.90
17632;DHT22;8934;51.194;17.150;2023-04-19T03:13:36;7.40;99.90
17632;DHT22;8934;51.194;17.150;2023-04-19T03:16:25;7.40;99.90
17632;DHT22;8934;51.194;17.150;2023-04-19T03:19:12;7.40;99.90
17632;DHT22;8934;51.194;17.150;2023-04-19T03:22:07;7.40;99.90
17632;DHT22;8934;51.194;17.150;2023-04-19T03:24:55;7.40;99.90
17632;DHT22;8934;51.194;17.150;2023-04-19T03:27:43;7.40;99.90
17632;DHT22;8934;51.194;17.150;2023-04-19T03:30:37;7.30;99.90
17632;DHT22;8934;51.194;17.150;2023-04-19T03:33:24;7.30;99.90
17632;DHT22;8934;51.194;17.150;2023-04-19T03:36:13;7.20;99.90
17632;DHT22;8934;51.194;17.150;2023-04-19T03:39:04;7.20;99.90
17632;DHT22;8934;51.194;17.150;2023-04-19T03:41:52;7.20;99.90
17632;DHT22;8934;51.194;17.150;2023-04-19T03:44:44;7.10;99.90
17632;DHT22;8934;51.194;17.150;2023-04-19T03:47:34;7.10;99.90
17632;DHT22;8934;51.194;17.150;2023-04-19T03:50:22;7.00;99.90
17632;DHT22;8934;51.194;17.150;2023-04-19T03:53:12;7.00;99.90
17632;DHT22;8934;51.194;17.150;2023-04-19T03:56:01;7.00;99.90
17632;DHT22;8934;51.194;17.150;2023-04-19T03:58:50;7.00;99.90
17632;DHT22;8934;51.194;17.150;2023-04-19T04:01:38;7.00;99.90
17632;DHT22;8934;51.194;17.150;2023-04-19T04:04:27;6.90;99.90
17632;DHT22;8934;51.194;17.150;2023-04-19T04:07:16;6.90;99.90
17632;DHT22;8934;51.194;17.150;2023-04-19T04:10:04;6.90;99.90
17632;DHT22;8934;51.194;17.150;2023-04-19T04:12:59;6.70;99.90
17632;DHT22;8934;51.194;17.150;2023-04-19T04:15:57;6.60;99.90
17632;DHT22;8934;51.194;17.150;2023-04-19T04:18:45;6.30;99.90
17632;DHT22;8934;51.194;17.150;2023-04-19T04:21:33;5.80;99.90
17632;DHT22;8934;51.194;17.150;2023-04-19T04:24:22;5.70;99.90
17632;DHT22;8934;51.194;17.150;2023-04-19T04:27:36;5.50;99.90
17632;DHT22;8934;51.194;17.150;2023-04-19T04:30:29;5.30;99.90
17632;DHT22;8934;51.194;17.150;2023-04-19T04:33:18;5.30;99.90
17632;DHT22;8934;51.194;17.150;2023-04-19T04:36:06;5.20;99.90
17632;DHT22;8934;51.194;17.150;2023-04-19T04:38:58;5.20;99.90
17632;DHT22;8934;51.194;17.150;2023-04-19T04:41:48;5.10;99.90
17632;DHT22;8934;51.194;17.150;2023-04-19T04:44:38;5.10;99.90
17632;DHT22;8934;51.194;17.150;2023-04-19T04:47:31;5.00;99.90
17632;DHT22;8934;51.194;17.150;2023-04-19T04:50:22;5.00;99.90
17632;DHT22;8934;51.194;17.150;2023-04-19T04:53:09;4.90;99.90
17632;DHT22;8934;51.194;17.150;2023-04-19T04:56:01;4.90;99.90
17632;DHT22;8934;51.194;17.150;2023-04-19T04:58:49;4.90;99.90
17632;DHT22;8934;51.194;17.150;2023-04-19T05:01:56;4.90;99.90
17632;DHT22;8934;51.194;17.150;2023-04-19T05:04:46;4.90;99.90
17632;DHT22;8934;51.194;17.150;2023-04-19T05:07:33;4.90;99.90
17632;DHT22;8934;51.194;17.150;2023-04-19T05:10:21;4.90;99.90
17632;DHT22;8934;51.194;17.150;2023-04-19T05:13:09;4.90;99.90
17632;DHT22;8934;51.194;17.150;2023-04-19T05:15:58;5.00;99.90
17632;DHT22;8934;51.194;17.150;2023-04-19T05:18:46;5.00;99.90
17632;DHT22;8934;51.194;17.150;2023-04-19T05:21:35;5.00;99.90
17632;DHT22;8934;51.194;17.150;2023-04-19T05:24:24;5.00;99.90
17632;DHT22;8934;51.194;17.150;2023-04-19T05:27:16;4.90;99.90
17632;DHT22;8934;51.194;17.150;2023-04-19T05:30:05;4.90;99.90
17632;DHT22;8934;51.194;17.150;2023-04-19T05:32:57;4.90;99.90
17632;DHT22;8934;51.194;17.150;2023-04-19T05:35:45;4.90;99.90
17632;DHT22;8934;51.194;17.150;2023-04-19T05:38:34;4.90;99.90
17632;DHT22;8934;51.194;17.150;2023-04-19T05:41:23;4.90;99.90
17632;DHT22;8934;51.194;17.150;2023-04-19T05:44:11;4.90;99.90
17632;DHT22;8934;51.194;17.150;2023-04-19T05:46:59;4.90;99.90
17632;DHT22;8934;51.194;17.150;2023-04-19T05:50:06;4.90;99.90
17632;DHT22;8934;51.194;17.150;2023-04-19T05:52:58;4.90;99.90
17632;DHT22;8934;51.194;17.150;2023-04-19T05:55:47;4.90;99.90
17632;DHT22;8934;51.194;17.150;2023-04-19T05:58:37;5.00;99.90
17632;DHT22;8934;51.194;17.150;2023-04-19T06:01:24;5.00;99.90
17632;DHT22;8934;51.194;17.150;2023-04-19T06:04:12;5.00;99.90
17632;DHT22;8934;51.194;17.150;2023-04-19T06:07:01;5.00;99.90
17632;DHT22;8934;51.194;17.150;2023-04-19T06:09:53;5.00;99.90
17632;DHT22;8934;51.194;17.150;2023-04-19T06:12:42;4.90;99.90
17632;DHT22;8934;51.194;17.150;2023-04-19T06:15:30;4.80;99.90
17632;DHT22;8934;51.194;17.150;2023-04-19T06:18:18;4.80;99.90
17632;DHT22;8934;51.194;17.150;2023-04-19T06:21:05;4.80;99.90
17632;DHT22;8934;51.194;17.150;2023-04-19T06:23:53;4.80;99.90
17632;DHT22;8934;51.194;17.150;2023-04-19T06:26:40;4.80;99.90
17632;DHT22;8934;51.194;17.150;2023-04-19T06:29:29;4.80;99.90
17632;DHT22;8934;51.194;17.150;2023-04-19T06:32:17;4.70;99.90
17632;DHT22;8934;51.194;17.150;2023-04-19T06:35:05;4.70;99.90
17632;DHT22;8934;51.194;17.150;2023-04-19T06:37:53;4.70;99.90
17632;DHT22;8934;51.194;17.150;2023-04-19T06:40:41;4.70;99.90
17632;DHT22;8934;51.194;17.150;2023-04-19T06:43:28;4.70;99.90
17632;DHT22;8934;51.194;17.150;2023-04-19T06:46:17;4.80;99.90
17632;DHT22;8934;51.194;17.150;2023-04-19T06:49:05;4.80;99.90
17632;DHT22;8934;51.194;17.150;2023-04-19T06:51:52;4.80;99.90
17632;DHT22;8934;51.194;17.150;2023-04-19T06:54:40;4.90;99.90
17632;DHT22;8934;51.194;17.150;2023-04-19T06:57:28;5.10;99.90
17632;DHT22;8934;51.194;17.150;2023-04-19T07:00:16;5.20;99.90
17632;DHT22;8934;51.194;17.150;2023-04-19T07:03:05;5.40;99.90
17632;DHT22;8934;51.194;17.150;2023-04-19T07:05:52;5.50;99.90
17632;DHT22;8934;51.194;17.150;2023-04-19T07:08:41;5.70;99.90
17632;DHT22;8934;51.194;17.150;2023-04-19T07:11:34;5.90;99.90
17632;DHT22;8934;51.194;17.150;2023-04-19T07:14:22;5.90;99.90
17632;DHT22;8934;51.194;17.150;2023-04-19T07:17:09;5.90;99.90
17632;DHT22;8934;51.194;17.150;2023-04-19T07:19:59;5.80;99.90
17632;DHT22;8934;51.194;17.150;2023-04-19T07:22:47;5.80;99.90
17632;DHT22;8934;51.194;17.150;2023-04-19T07:25:34;5.90;99.90
17632;DHT22;8934;51.194;17.150;2023-04-19T07:28:22;5.90;99.90
17632;DHT22;8934;51.194;17.150;2023-04-19T07:31:14;5.90;99.90
17632;DHT22;8934;51.194;17.150;2023-04-19T07:34:02;5.90;99.90
17632;DHT22;8934;51.194;17.150;2023-04-19T07:36:51;5.90;99.90
17632;DHT22;8934;51.194;17.150;2023-04-19T07:39:38;5.80;99.90
17632;DHT22;8934;51.194;17.150;2023-04-19T07:42:26;5.80;99.90
17632;DHT22;8934;51.194;17.150;2023-04-19T07:45:16;5.80;99.90
17632;DHT22;8934;51.194;17.150;2023-04-19T07:48:04;5.90;99.90
17632;DHT22;8934;51.194;17.150;2023-04-19T07:50:52;6.00;99.90
17632;DHT22;8934;51.194;17.150;2023-04-19T07:53:42;6.00;99.90
17632;DHT22;8934;51.194;17.150;2023-04-19T07:56:30;6.20;99.90
17632;DHT22;8934;51.194;17.150;2023-04-19T07:59:18;6.40;99.90
17632;DHT22;8934;51.194;17.150;2023-04-19T08:02:06;6.50;99.90
17632;DHT22;8934;51.194;17.150;2023-04-19T08:04:53;6.50;99.90
17632;DHT22;8934;51.194;17.150;2023-04-19T08:07:42;6.40;99.90
17632;DHT22;8934;51.194;17.150;2023-04-19T08:10:31;6.60;99.90
17632;DHT22;8934;51.194;17.150;2023-04-19T08:13:19;6.70;99.90
17632;DHT22;8934;51.194;17.150;2023-04-19T08:16:06;6.60;99.90
17632;DHT22;8934;51.194;17.150;2023-04-19T08:18:56;6.40;99.90
17632;DHT22;8934;51.194;17.150;2023-04-19T08:21:44;6.20;99.90
17632;DHT22;8934;51.194;17.150;2023-04-19T08:24:31;6.10;99.90
17632;DHT22;8934;51.194;17.150;2023-04-19T08:27:21;6.10;99.90
17632;DHT22;8934;51.194;17.150;2023-04-19T08:30:09;6.10;99.90
17632;DHT22;8934;51.194;17.150;2023-04-19T08:32:57;6.10;99.90
17632;DHT22;8934;51.194;17.150;2023-04-19T08:35:46;6.30;99.90
17632;DHT22;8934;51.194;17.150;2023-04-19T08:38:34;6.40;99.90
17632;DHT22;8934;51.194;17.150;2023-04-19T08:41:24;6.50;99.90
17632;DHT22;8934;51.194;17.150;2023-04-19T08:44:15;6.60;99.90
17632;DHT22;8934;51.194;17.150;2023-04-19T08:47:20;6.70;99.90
17632;DHT22;8934;51.194;17.150;2023-04-19T08:50:19;6.80;99.90
17632;DHT22;8934;51.194;17.150;2023-04-19T08:53:18;7.20;99.90
17632;DHT22;8934;51.194;17.150;2023-04-19T08:56:11;7.40;99.90
17632;DHT22;8934;51.194;17.150;2023-04-19T08:59:18;7.50;99.90
17632;DHT22;8934;51.194;17.150;2023-04-19T09:02:06;7.40;99.90
17632;DHT22;8934;51.194;17.150;2023-04-19T09:04:54;7.50;99.90
17632;DHT22;8934;51.194;17.150;2023-04-19T09:07:42;7.40;99.90
17632;DHT22;8934;51.194;17.150;2023-04-19T09:10:30;7.30;99.90
17632;DHT22;8934;51.194;17.150;2023-04-19T09:13:18;7.20;99.90
17632;DHT22;8934;51.194;17.150;2023-04-19T09:16:22;7.30;99.90
17632;DHT22;8934;51.194;17.150;2023-04-19T09:19:10;7.30;99.90
17632;DHT22;8934;51.194;17.150;2023-04-19T09:22:11;7.30;99.90
17632;DHT22;8934;51.194;17.150;2023-04-19T09:25:00;7.50;99.90
17632;DHT22;8934;51.194;17.150;2023-04-19T09:28:08;7.50;99.90
17632;DHT22;8934;51.194;17.150;2023-04-19T09:30:57;7.40;99.90
17632;DHT22;8934;51.194;17.150;2023-04-19T09:34:16;7.30;99.90
17632;DHT22;8934;51.194;17.150;2023-04-19T09:37:11;7.30;99.90
17632;DHT22;8934;51.194;17.150;2023-04-19T09:40:22;7.30;99.90
17632;DHT22;8934;51.194;17.150;2023-04-19T09:43:10;7.30;99.90
17632;DHT22;8934;51.194;17.150;2023-04-19T09:46:35;7.20;99.90
17632;DHT22;8934;51.194;17.150;2023-04-19T09:49:25;7.00;99.90
17632;DHT22;8934;51.194;17.150;2023-04-19T09:52:31;7.00;99.90
17632;DHT22;8934;51.194;17.150;2023-04-19T09:55:20;6.90;99.90
17632;DHT22;8934;51.194;17.150;2023-04-19T09:58:14;6.90;99.90
17632;DHT22;8934;51.194;17.150;2023-04-19T10:01:01;7.00;99.90
17632;DHT22;8934;51.194;17.150;2023-04-19T10:04:02;7.00;99.90
17632;DHT22;8934;51.194;17.150;2023-04-19T10:07:10;7.10;99.90
17632;DHT22;8934;51.194;17.150;2023-04-19T10:10:01;7.00;99.90
17632;DHT22;8934;51.194;17.150;2023-04-19T10:13:03;7.00;99.90
17632;DHT22;8934;51.194;17.150;2023-04-19T10:15:54;7.10;99.90
17632;DHT22;8934;51.194;17.150;2023-04-19T10:19:07;7.00;99.90
17632;DHT22;8934;51.194;17.150;2023-04-19T10:21:55;7.00;99.90
17632;DHT22;8934;51.194;17.150;2023-04-19T10:28:05;7.00;99.90
17632;DHT22;8934;51.194;17.150;2023-04-19T10:30:53;7.00;99.90
17632;DHT22;8934;51.194;17.150;2023-04-19T10:33:42;6.90;99.90
17632;DHT22;8934;51.194;17.150;2023-04-19T10:36:29;6.90;99.90
17632;DHT22;8934;51.194;17.150;2023-04-19T10:39:38;6.80;99.90
17632;DHT22;8934;51.194;17.150;2023-04-19T10:43:17;6.80;99.90
17632;DHT22;8934;51.194;17.150;2023-04-19T10:46:05;6.70;99.90
17632;DHT22;8934;51.194;17.150;2023-04-19T10:48:56;6.80;99.90
17632;DHT22;8934;51.194;17.150;2023-04-19T10:51:49;6.90;99.90
17632;DHT22;8934;51.194;17.150;2023-04-19T10:54:38;6.90;99.90
17632;DHT22;8934;51.194;17.150;2023-04-19T10:57:25;6.80;99.90
17632;DHT22;8934;51.194;17.150;2023-04-19T11:00:21;6.80;99.90
17632;DHT22;8934;51.194;17.150;2023-04-19T11:06:32;6.90;99.90
17632;DHT22;8934;51.194;17.150;2023-04-19T11:09:21;6.80;99.90
17632;DHT22;8934;51.194;17.150;2023-04-19T11:12:11;6.80;99.90
17632;DHT22;8934;51.194;17.150;2023-04-19T11:14:58;6.80;99.90
17632;DHT22;8934;51.194;17.150;2023-04-19T11:17:50;6.80;99.90
17632;DHT22;8934;51.194;17.150;2023-04-19T11:20:57;6.80;99.90
17632;DHT22;8934;51.194;17.150;2023-04-19T11:23:46;6.80;99.90
17632;DHT22;8934;51.194;17.150;2023-04-19T11:26:35;6.80;99.90
17632;DHT22;8934;51.194;17.150;2023-04-19T11:29:22;6.80;99.90
17632;DHT22;8934;51.194;17.150;2023-04-19T11:32:10;6.80;99.90
17632;DHT22;8934;51.194;17.150;2023-04-19T11:35:03;6.70;99.90
17632;DHT22;8934;51.194;17.150;2023-04-19T11:37:53;6.70;99.90
17632;DHT22;8934;51.194;17.150;2023-04-19T11:40:41;6.70;99.90
17632;DHT22;8934;51.194;17.150;2023-04-19T11:43:32;6.70;99.90
17632;DHT22;8934;51.194;17.150;2023-04-19T11:46:20;6.80;99.90
17632;DHT22;8934;51.194;17.150;2023-04-19T11:49:07;6.70;99.90
17632;DHT22;8934;51.194;17.150;2023-04-19T11:51:57;6.80;99.90
17632;DHT22;8934;51.194;17.150;2023-04-19T11:54:46;6.80;99.90
17632;DHT22;8934;51.194;17.150;2023-04-19T11:57:34;6.80;99.90
17632;DHT22;8934;51.194;17.150;2023-04-19T12:00:26;6.80;99.90
17632;DHT22;8934;51.194;17.150;2023-04-19T12:03:14;6.80;99.90
17632;DHT22;8934;51.194;17.150;2023-04-19T12:06:03;6.90;99.90
17632;DHT22;8934;51.194;17.150;2023-04-19T12:08:56;6.80;99.90
17632;DHT22;8934;51.194;17.150;2023-04-19T12:11:45;6.80;99.90
17632;DHT22;8934;51.194;17.150;2023-04-19T12:14:35;6.80;99.90
17632;DHT22;8934;51.194;17.150;2023-04-19T12:17:23;6.70;99.90
17632;DHT22;8934;51.194;17.150;2023-04-19T12:20:11;6.60;99.90
17632;DHT22;8934;51.194;17.150;2023-04-19T12:22:59;6.50;99.90
17632;DHT22;8934;51.194;17.150;2023-04-19T12:25:49;6.40;99.90
17632;DHT22;8934;51.194;17.150;2023-04-19T12:28:36;6.30;99.90
17632;DHT22;8934;51.194;17.150;2023-04-19T12:31:24;6.30;99.90
17632;DHT22;8934;51.194;17.150;2023-04-19T12:34:12;6.30;99.90
17632;DHT22;8934;51.194;17.150;2023-04-19T12:37:00;6.20;99.90
17632;DHT22;8934;51.194;17.150;2023-04-19T12:39:49;6.10;99.90
17632;DHT22;8934;51.194;17.150;2023-04-19T12:42:38;6.10;99.90
17632;DHT22;8934;51.194;17.150;2023-04-19T12:45:26;6.00;99.90
17632;DHT22;8934;51.194;17.150;2023-04-19T12:48:13;6.00;99.90
17632;DHT22;8934;51.194;17.150;2023-04-19T12:51:01;6.10;99.90
17632;DHT22;8934;51.194;17.150;2023-04-19T12:53:49;6.10;99.90
17632;DHT22;8934;51.194;17.150;2023-04-19T12:56:37;6.10;99.90
17632;DHT22;8934;51.194;17.150;2023-04-19T12:59:25;6.20;99.90
17632;DHT22;8934;51.194;17.150;2023-04-19T13:02:13;6.30;99.90
17632;DHT22;8934;51.194;17.150;2023-04-19T13:05:00;6.50;99.90
17632;DHT22;8934;51.194;17.150;2023-04-19T13:07:50;6.60;99.90
17632;DHT22;8934;51.194;17.150;2023-04-19T13:10:37;6.90;99.90
17632;DHT22;8934;51.194;17.150;2023-04-19T13:13:25;7.00;99.90
17632;DHT22;8934;51.194;17.150;2023-04-19T13:16:14;7.10;99.90
17632;DHT22;8934;51.194;17.150;2023-04-19T13:19:01;7.30;99.90
17632;DHT22;8934;51.194;17.150;2023-04-19T13:21:49;7.50;99.90
17632;DHT22;8934;51.194;17.150;2023-04-19T13:24:37;7.50;99.90
17632;DHT22;8934;51.194;17.150;2023-04-19T13:27:24;7.40;99.90
17632;DHT22;8934;51.194;17.150;2023-04-19T13:30:13;7.40;99.90
17632;DHT22;8934;51.194;17.150;2023-04-19T13:33:02;7.30;99.90
17632;DHT22;8934;51.194;17.150;2023-04-19T13:35:53;7.20;99.90
17632;DHT22;8934;51.194;17.150;2023-04-19T13:38:41;7.00;99.90
17632;DHT22;8934;51.194;17.150;2023-04-19T13:41:28;6.90;99.90
17632;DHT22;8934;51.194;17.150;2023-04-19T13:44:16;6.90;99.90
17632;DHT22;8934;51.194;17.150;2023-04-19T13:47:04;6.90;99.90
17632;DHT22;8934;51.194;17.150;2023-04-19T13:49:53;7.00;99.90
17632;DHT22;8934;51.194;17.150;2023-04-19T13:52:41;7.20;99.90
17632;DHT22;8934;51.194;17.150;2023-04-19T13:55:28;7.40;99.90
17632;DHT22;8934;51.194;17.150;2023-04-19T13:58:16;7.60;99.90
17632;DHT22;8934;51.194;17.150;2023-04-19T14:01:04;7.70;99.90
17632;DHT22;8934;51.194;17.150;2023-04-19T14:03:51;7.90;99.90
17632;DHT22;8934;51.194;17.150;2023-04-19T14:06:42;7.70;99.90
17632;DHT22;8934;51.194;17.150;2023-04-19T14:09:30;7.70;99.90
17632;DHT22;8934;51.194;17.150;2023-04-19T14:12:18;8.00;99.90
17632;DHT22;8934;51.194;17.150;2023-04-19T14:15:07;8.20;99.90
17632;DHT22;8934;51.194;17.150;2023-04-19T14:17:55;8.40;99.90
17632;DHT22;8934;51.194;17.150;2023-04-19T14:20:42;8.50;99.90
17632;DHT22;8934;51.194;17.150;2023-04-19T14:23:32;8.40;99.90
17632;DHT22;8934;51.194;17.150;2023-04-19T14:26:19;8.40;99.90
17632;DHT22;8934;51.194;17.150;2023-04-19T14:29:07;8.60;99.90
17632;DHT22;8934;51.194;17.150;2023-04-19T14:31:55;8.70;99.90
17632;DHT22;8934;51.194;17.150;2023-04-19T14:34:55;8.50;99.90
17632;DHT22;8934;51.194;17.150;2023-04-19T14:37:43;8.30;99.90
17632;DHT22;8934;51.194;17.150;2023-04-19T14:40:32;8.30;99.90
17632;DHT22;8934;51.194;17.150;2023-04-19T14:43:20;8.30;99.90
17632;DHT22;8934;51.194;17.150;2023-04-19T14:46:08;8.30;99.90
17632;DHT22;8934;51.194;17.150;2023-04-19T14:48:55;8.30;99.90
17632;DHT22;8934;51.194;17.150;2023-04-19T14:51:48;8.30;99.90
17632;DHT22;8934;51.194;17.150;2023-04-19T14:54:36;8.10;99.90
17632;DHT22;8934;51.194;17.150;2023-04-19T14:57:25;7.90;99.90
17632;DHT22;8934;51.194;17.150;2023-04-19T15:00:14;7.80;99.90
17632;DHT22;8934;51.194;17.150;2023-04-19T15:03:01;7.90;99.90
17632;DHT22;8934;51.194;17.150;2023-04-19T15:05:49;7.80;99.90
17632;DHT22;8934;51.194;17.150;2023-04-19T15:08:36;7.70;99.90
17632;DHT22;8934;51.194;17.150;2023-04-19T15:11:24;7.60;99.90
17632;DHT22;8934;51.194;17.150;2023-04-19T15:14:13;7.50;99.90
17632;DHT22;8934;51.194;17.150;2023-04-19T15:17:01;7.40;99.90
17632;DHT22;8934;51.194;17.150;2023-04-19T15:19:49;7.30;99.90
17632;DHT22;8934;51.194;17.150;2023-04-19T15:22:36;7.10;99.90
17632;DHT22;8934;51.194;17.150;2023-04-19T15:25:24;7.10;99.90
17632;DHT22;8934;51.194;17.150;2023-04-19T15:28:12;7.10;99.90
17632;DHT22;8934;51.194;17.150;2023-04-19T15:31:02;7.20;99.90
17632;DHT22;8934;51.194;17.150;2023-04-19T15:33:50;7.20;99.90
17632;DHT22;8934;51.194;17.150;2023-04-19T15:36:38;7.30;99.90
17632;DHT22;8934;51.194;17.150;2023-04-19T15:39:26;7.40;99.90
17632;DHT22;8934;51.194;17.150;2023-04-19T15:42:14;7.50;99.90
17632;DHT22;8934;51.194;17.150;2023-04-19T15:45:01;7.60;99.90
17632;DHT22;8934;51.194;17.150;2023-04-19T15:47:51;7.60;99.90
17632;DHT22;8934;51.194;17.150;2023-04-19T15:50:39;7.80;99.90
17632;DHT22;8934;51.194;17.150;2023-04-19T15:53:29;7.90;99.90
17632;DHT22;8934;51.194;17.150;2023-04-19T15:56:17;8.10;99.90
17632;DHT22;8934;51.194;17.150;2023-04-19T15:59:04;8.20;99.90
17632;DHT22;8934;51.194;17.150;2023-04-19T16:01:52;8.30;99.90
17632;DHT22;8934;51.194;17.150;2023-04-19T16:04:41;8.30;99.90
17632;DHT22;8934;51.194;17.150;2023-04-19T16:07:33;8.30;99.90
17632;DHT22;8934;51.194;17.150;2023-04-19T16:10:21;8.30;99.90
17632;DHT22;8934;51.194;17.150;2023-04-19T16:13:08;8.30;99.90
17632;DHT22;8934;51.194;17.150;2023-04-19T16:15:59;8.30;99.90
17632;DHT22;8934;51.194;17.150;2023-04-19T16:18:47;8.20;99.90
17632;DHT22;8934;51.194;17.150;2023-04-19T16:21:36;8.10;99.90
17632;DHT22;8934;51.194;17.150;2023-04-19T16:24:24;8.00;99.90
17632;DHT22;8934;51.194;17.150;2023-04-19T16:27:12;7.90;99.90
17632;DHT22;8934;51.194;17.150;2023-04-19T16:29:59;7.90;99.90
17632;DHT22;8934;51.194;17.150;2023-04-19T16:32:47;7.90;99.90
17632;DHT22;8934;51.194;17.150;2023-04-19T16:35:34;7.80;99.90
17632;DHT22;8934;51.194;17.150;2023-04-19T16:38:23;7.60;99.90
17632;DHT22;8934;51.194;17.150;2023-04-19T16:41:11;7.50;99.90
17632;DHT22;8934;51.194;17.150;2023-04-19T16:43:59;7.50;99.90
17632;DHT22;8934;51.194;17.150;2023-04-19T16:46:46;7.40;99.90
17632;DHT22;8934;51.194;17.150;2023-04-19T16:49:33;7.40;99.90
17632;DHT22;8934;51.194;17.150;2023-04-19T16:52:21;7.30;99.90
17632;DHT22;8934;51.194;17.150;2023-04-19T16:55:10;7.30;99.90
17632;DHT22;8934;51.194;17.150;2023-04-19T16:57:57;7.20;99.90
17632;DHT22;8934;51.194;17.150;2023-04-19T17:00:46;7.20;99.90
17632;DHT22;8934;51.194;17.150;2023-04-19T17:03:33;7.20;99.90
17632;DHT22;8934;51.194;17.150;2023-04-19T17:06:22;7.10;99.90
17632;DHT22;8934;51.194;17.150;2023-04-19T17:09:10;7.10;99.90
17632;DHT22;8934;51.194;17.150;2023-04-19T17:11:58;7.10;99.90
17632;DHT22;8934;51.194;17.150;2023-04-19T17:14:47;7.10;99.90
17632;DHT22;8934;51.194;17.150;2023-04-19T17:17:34;7.10;99.90
17632;DHT22;8934;51.194;17.150;2023-04-19T17:20:22;7.10;99.90
17632;DHT22;8934;51.194;17.150;2023-04-19T17:23:09;7.00;99.90
17632;DHT22;8934;51.194;17.150;2023-04-19T17:25:57;7.00;99.90
17632;DHT22;8934;51.194;17.150;2023-04-19T17:28:46;7.00;99.90
17632;DHT22;8934;51.194;17.150;2023-04-19T17:31:34;6.90;99.90
17632;DHT22;8934;51.194;17.150;2023-04-19T17:34:21;6.90;99.90
17632;DHT22;8934;51.194;17.150;2023-04-19T17:37:09;6.90;99.90
17632;DHT22;8934;51.194;17.150;2023-04-19T17:39:57;6.80;99.90
17632;DHT22;8934;51.194;17.150;2023-04-19T17:42:45;6.80;99.90
17632;DHT22;8934;51.194;17.150;2023-04-19T17:45:35;6.80;99.90
17632;DHT22;8934;51.194;17.150;2023-04-19T17:48:22;6.80;99.90
17632;DHT22;8934;51.194;17.150;2023-04-19T17:51:10;6.80;99.90
17632;DHT22;8934;51.194;17.150;2023-04-19T17:53:58;6.80;99.90
17632;DHT22;8934;51.194;17.150;2023-04-19T17:56:45;6.80;99.90
17632;DHT22;8934;51.194;17.150;2023-04-19T17:59:34;6.70;99.90
17632;DHT22;8934;51.194;17.150;2023-04-19T18:02:23;6.70;99.90
17632;DHT22;8934;51.194;17.150;2023-04-19T18:05:11;6.70;99.90
17632;DHT22;8934;51.194;17.150;2023-04-19T18:07:59;6.70;99.90
17632;DHT22;8934;51.194;17.150;2023-04-19T18:10:47;6.70;99.90
17632;DHT22;8934;51.194;17.150;2023-04-19T18:13:34;6.60;99.90
17632;DHT22;8934;51.194;17.150;2023-04-19T18:27:12;6.60;99.90